createdAt,value
2022-12-26T00:02:29.855Z,-5.24
2022-12-26T00:07:32.608Z,-5.23
2022-12-26T00:12:35.656Z,-5.19
2022-12-26T00:17:38.470Z,-5.18
2022-12-26T00:22:41.121Z,-5.16
2022-12-26T00:27:44.093Z,-5.22
2022-12-26T00:32:47.124Z,-5.26
2022-12-26T00:37:49.888Z,-5.23
2022-12-26T00:42:54.502Z,-5.23
2022-12-26T00:47:57.147Z,-5.28
2022-12-26T00:52:59.844Z,-5.24
2022-12-26T00:58:02.672Z,-5.25
2022-12-26T01:03:08.379Z,-5.20
2022-12-26T01:08:21.492Z,-5.16
2022-12-26T01:13:27.011Z,-5.08
2022-12-26T01:18:30.003Z,-5.14
2022-12-26T01:23:32.652Z,-5.07
2022-12-26T01:28:35.413Z,-5.09
2022-12-26T01:33:38.331Z,-5.09
2022-12-26T01:38:41.042Z,-5.07
2022-12-26T01:43:49.438Z,-5.10
2022-12-26T01:48:53.949Z,-5.07
2022-12-26T01:54:39.811Z,-5.13
2022-12-26T01:59:25.570Z,-5.23
2022-12-26T02:04:50.603Z,-5.17
2022-12-26T02:09:53.566Z,-5.17
2022-12-26T02:14:58.083Z,-5.09
2022-12-26T02:20:10.657Z,-5.04
2022-12-26T02:25:40.661Z,-5.02
2022-12-26T02:31:06.145Z,-5.00
2022-12-26T02:36:15.023Z,-5.05
2022-12-26T02:41:17.643Z,-5.03
2022-12-26T02:46:44.770Z,-5.02
2022-12-26T02:52:24.892Z,-4.98
2022-12-26T02:58:01.444Z,-4.99
2022-12-26T03:03:41.431Z,-5.06
2022-12-26T03:09:06.014Z,-5.01
2022-12-26T03:14:19.706Z,-5.02
2022-12-26T03:19:24.293Z,-5.23
2022-12-26T03:24:47.308Z,-4.98
2022-12-26T03:30:08.338Z,-4.96
2022-12-26T03:35:15.058Z,-4.98
2022-12-26T03:40:43.615Z,-4.97
2022-12-26T03:46:13.759Z,-4.90
2022-12-26T03:51:51.268Z,-4.88
2022-12-26T03:57:15.617Z,-4.81
2022-12-26T04:02:40.470Z,-4.84
2022-12-26T04:08:05.857Z,-4.76
2022-12-26T04:13:35.018Z,-4.78
2022-12-26T04:19:09.329Z,-4.65
2022-12-26T04:24:36.884Z,-4.63
2022-12-26T04:29:58.362Z,-4.56
2022-12-26T04:35:45.739Z,-4.51
2022-12-26T04:41:10.672Z,-4.46
2022-12-26T04:46:14.301Z,-4.41
2022-12-26T04:51:17.016Z,-4.36
2022-12-26T04:56:19.671Z,-4.41
2022-12-26T05:01:40.695Z,-4.39
2022-12-26T05:07:02.114Z,-4.41
2022-12-26T05:12:08.778Z,-4.45
2022-12-26T05:17:32.229Z,-4.39
2022-12-26T05:22:55.209Z,-4.34
2022-12-26T05:28:16.441Z,-4.28
2022-12-26T05:33:37.394Z,-4.28
2022-12-26T05:38:39.992Z,-4.22
2022-12-26T05:43:42.625Z,-4.18
2022-12-26T05:48:45.440Z,-4.22
2022-12-26T05:53:48.845Z,-4.17
2022-12-26T05:58:56.230Z,-4.13
2022-12-26T06:04:00.298Z,-4.05
2022-12-26T06:09:03.162Z,-3.99
2022-12-26T06:14:05.820Z,-3.86
2022-12-26T06:19:08.749Z,-3.84
2022-12-26T06:24:11.449Z,-3.98
2022-12-26T06:29:14.176Z,-4.00
2022-12-26T06:34:18.678Z,-3.90
2022-12-26T06:39:21.616Z,-3.86
2022-12-26T06:44:24.309Z,-3.81
2022-12-26T06:49:32.435Z,-3.78
2022-12-26T06:54:35.747Z,-3.82
2022-12-26T06:59:38.425Z,-3.74
2022-12-26T07:04:41.334Z,-3.76
2022-12-26T07:09:43.994Z,-3.80
2022-12-26T07:14:47.059Z,-3.75
2022-12-26T07:19:49.790Z,-3.74
2022-12-26T07:24:52.420Z,-3.94
2022-12-26T07:29:55.109Z,-3.79
2022-12-26T07:34:57.815Z,-3.77
2022-12-26T07:40:00.443Z,-3.77
2022-12-26T07:45:03.163Z,-3.73
2022-12-26T07:50:06.597Z,-3.77
2022-12-26T07:55:09.798Z,-3.74
2022-12-26T08:00:12.872Z,-3.75
2022-12-26T08:05:16.422Z,-3.82
2022-12-26T08:10:19.281Z,-3.79
2022-12-26T08:15:22.028Z,-3.80
2022-12-26T08:20:24.969Z,-3.81
2022-12-26T08:25:28.130Z,-3.73
2022-12-26T08:30:30.823Z,-3.70
2022-12-26T08:35:37.671Z,-3.67
2022-12-26T08:40:44.318Z,-3.72
2022-12-26T08:45:47.551Z,-3.68
2022-12-26T08:50:56.354Z,-3.68
2022-12-26T08:56:00.111Z,-3.67
2022-12-26T09:01:20.509Z,-3.72
2022-12-26T09:06:23.777Z,-3.69
2022-12-26T09:11:27.355Z,-3.63
2022-12-26T09:16:37.501Z,-3.61
2022-12-26T09:21:41.662Z,-3.65
2022-12-26T09:26:44.847Z,-3.68
2022-12-26T09:31:47.488Z,-3.63
2022-12-26T09:36:50.137Z,-3.67
2022-12-26T09:42:18.718Z,-3.63
2022-12-26T09:47:30.207Z,-3.69
2022-12-26T09:52:55.254Z,-3.70
2022-12-26T09:58:01.815Z,-3.75
2022-12-26T10:03:05.114Z,-3.76
2022-12-26T10:08:26.561Z,-3.83
2022-12-26T10:13:38.423Z,-3.83
2022-12-26T10:19:02.827Z,-3.88
2022-12-26T10:24:14.405Z,-3.88
2022-12-26T10:29:29.382Z,-3.96
2022-12-26T10:34:40.809Z,-3.90
2022-12-26T10:39:49.556Z,-3.91
2022-12-26T10:44:52.226Z,-3.99
2022-12-26T10:49:55.201Z,-3.96
2022-12-26T10:55:28.627Z,-3.98
2022-12-26T11:00:25.122Z,-3.97
2022-12-26T11:05:48.969Z,-3.94
2022-12-26T11:11:14.217Z,-3.93
2022-12-26T11:16:26.406Z,-3.88
2022-12-26T11:21:30.621Z,-3.96
2022-12-26T11:26:33.301Z,-4.08
2022-12-26T11:31:36.445Z,-4.05
2022-12-26T11:36:40.986Z,-4.10
2022-12-26T11:41:46.797Z,-4.09
2022-12-26T11:47:15.552Z,-4.13
2022-12-26T11:52:47.632Z,-4.22
2022-12-26T11:58:06.962Z,-4.31
2022-12-26T12:03:17.047Z,-4.29
2022-12-26T12:08:25.400Z,-4.27
2022-12-26T12:14:11.046Z,-4.47
2022-12-26T12:19:13.922Z,-4.31
2022-12-26T12:24:29.469Z,-4.31
2022-12-26T12:29:57.854Z,-4.35
2022-12-26T12:35:23.102Z,-4.38
2022-12-26T12:40:34.487Z,-4.35
2022-12-26T12:46:07.899Z,-4.40
2022-12-26T12:51:29.218Z,-4.40
2022-12-26T12:56:41.996Z,-4.46
2022-12-26T13:01:48.155Z,-4.55
2022-12-26T13:06:57.608Z,-4.62
2022-12-26T13:12:06.960Z,-4.68
2022-12-26T13:17:22.134Z,-4.68
2022-12-26T13:22:50.815Z,-4.74
2022-12-26T13:27:55.590Z,-4.80
2022-12-26T13:32:58.238Z,-4.89
2022-12-26T13:38:01.141Z,-4.93
2022-12-26T13:43:33.043Z,-4.96
2022-12-26T13:48:38.700Z,-4.98
2022-12-26T13:53:42.415Z,-5.10
2022-12-26T13:58:54.437Z,-5.19
2022-12-26T14:04:09.622Z,-5.32
2022-12-26T14:09:24.218Z,-5.47
2022-12-26T14:15:06.145Z,-5.67
2022-12-26T14:20:17.290Z,-5.83
2022-12-26T14:25:24.813Z,-5.92
2022-12-26T14:31:03.264Z,-6.07
2022-12-26T14:36:06.098Z,-6.24
2022-12-26T14:41:34.809Z,-6.24
2022-12-26T14:46:39.117Z,-6.32
2022-12-26T14:51:41.984Z,-6.44
2022-12-26T14:56:44.888Z,-6.71
2022-12-26T15:01:50.131Z,-6.72
2022-12-26T15:07:05.010Z,-6.80
2022-12-26T15:12:19.556Z,-6.87
2022-12-26T15:17:34.198Z,-6.96
2022-12-26T15:23:04.452Z,-7.09
2022-12-26T15:28:28.783Z,-7.11
2022-12-26T15:33:41.447Z,-7.19
2022-12-26T15:38:56.102Z,-7.29
2022-12-26T15:44:20.397Z,-7.36
2022-12-26T15:49:43.269Z,-7.40
2022-12-26T15:55:11.123Z,-7.53
2022-12-26T16:00:26.371Z,-7.54
2022-12-26T16:05:33.095Z,-7.72
2022-12-26T16:10:36.726Z,-7.74
2022-12-26T16:15:48.807Z,-7.86
2022-12-26T16:21:11.287Z,-7.84
2022-12-26T16:26:25.553Z,-7.80
2022-12-26T16:31:31.461Z,-7.81
2022-12-26T16:36:36.916Z,-7.88
2022-12-26T16:41:57.997Z,-7.91
2022-12-26T16:47:13.544Z,-7.93
2022-12-26T16:52:45.827Z,-7.90
2022-12-26T16:57:51.409Z,-8.01
2022-12-26T17:02:56.887Z,-8.06
2022-12-26T17:08:04.227Z,-8.10
2022-12-26T17:13:09.947Z,-8.08
2022-12-26T17:18:45.309Z,-8.17
2022-12-26T17:24:20.633Z,-8.16
2022-12-26T17:29:55.386Z,-8.13
2022-12-26T17:35:06.445Z,-8.29
2022-12-26T17:40:15.012Z,-8.36
2022-12-26T17:45:20.943Z,-8.41
2022-12-26T17:50:35.652Z,-8.44
2022-12-26T17:55:38.487Z,-8.56
2022-12-26T18:00:42.245Z,-8.64
2022-12-26T18:05:46.584Z,-8.63
2022-12-26T18:10:49.354Z,-8.71
2022-12-26T18:15:52.898Z,-8.77
2022-12-26T18:20:55.706Z,-8.84
2022-12-26T18:26:01.235Z,-8.98
2022-12-26T18:31:04.187Z,-8.96
2022-12-26T18:36:07.908Z,-9.06
2022-12-26T18:41:15.509Z,-9.07
2022-12-26T18:46:23.750Z,-9.17
2022-12-26T18:51:28.248Z,-9.16
2022-12-26T18:56:30.990Z,-9.17
2022-12-26T19:01:33.777Z,-9.16
2022-12-26T19:06:36.494Z,-9.30
2022-12-26T19:11:39.985Z,-9.36
2022-12-26T19:16:42.682Z,-9.66
2022-12-26T19:21:45.548Z,-9.44
2022-12-26T19:26:48.135Z,-9.55
2022-12-26T19:31:50.897Z,-9.61
2022-12-26T19:36:53.567Z,-9.66
2022-12-26T19:41:56.199Z,-9.72
2022-12-26T19:47:10.952Z,-9.78
2022-12-26T19:52:15.498Z,-9.75
2022-12-26T19:57:18.342Z,-9.77
2022-12-26T20:02:21.267Z,-9.90
2022-12-26T20:07:24.122Z,-9.95
2022-12-26T20:12:26.897Z,-9.99
2022-12-26T20:17:29.551Z,-9.97
2022-12-26T20:22:32.295Z,-9.96
2022-12-26T20:27:35.092Z,-10.00
2022-12-26T20:32:37.761Z,-10.03
2022-12-26T20:37:40.512Z,-10.07
2022-12-26T20:42:43.213Z,-10.16
2022-12-26T20:47:46.011Z,-10.19
2022-12-26T20:52:48.729Z,-10.20
2022-12-26T20:57:51.385Z,-10.26
2022-12-26T21:02:54.212Z,-10.50
2022-12-26T21:07:57.091Z,-10.38
2022-12-26T21:12:59.758Z,-10.36
2022-12-26T21:18:03.301Z,-10.40
2022-12-26T21:23:06.139Z,-10.48
2022-12-26T21:28:08.768Z,-10.58
2022-12-26T21:33:11.430Z,-10.62
2022-12-26T21:38:14.229Z,-10.68
2022-12-26T21:43:17.388Z,-10.70
2022-12-26T21:48:20.130Z,-10.68
2022-12-26T21:53:22.849Z,-10.72
2022-12-26T21:58:25.536Z,-10.81
2022-12-26T22:03:46.629Z,-10.88
2022-12-26T22:08:49.384Z,-10.94
2022-12-26T22:13:52.016Z,-11.02
2022-12-26T22:18:56.712Z,-11.10
2022-12-26T22:24:00.035Z,-11.08
2022-12-26T22:29:02.756Z,-11.19
2022-12-26T22:34:07.692Z,-11.20
2022-12-26T22:39:13.825Z,-11.21
2022-12-26T22:44:16.482Z,-11.36
2022-12-26T22:49:19.275Z,-11.38
2022-12-26T22:54:21.973Z,-11.41
2022-12-26T22:59:58.120Z,-11.54
2022-12-26T23:04:47.695Z,-11.49
2022-12-26T23:09:50.587Z,-11.47
2022-12-26T23:14:53.408Z,-11.55
2022-12-26T23:20:14.667Z,-11.61
2022-12-26T23:25:17.506Z,-11.58
2022-12-26T23:30:20.321Z,-11.58
2022-12-26T23:35:23.940Z,-11.59
2022-12-26T23:40:26.669Z,-11.65
2022-12-26T23:45:29.839Z,-11.73
2022-12-26T23:50:32.401Z,-11.74
2022-12-26T23:55:35.231Z,-11.91
